Accueil
METAR-TAF:

METAR-TAF

Aéroports :

Cassel, Allemagne

latitude: 51-24N, longitude: 009-23E, altitude: 277 m

Observation

Le bulletin a été fait il y a 3 heures et 44 minutes, à 19:20 UTC
Vent 10 kt de nord-ouest
Température 19°C
Humidité 68%
Pression 1019 hPa
Visibilité 10 km ou plus
pas de nuages en-dessous de 1500 mètres et pas de cumulonimbus.

METAR: EDVK 171920Z 32010KT CAVOK 19/13 Q1019

Heure: 01:04 (23:04 UTC)

Prévision

Le bulletin a été fait il y a 3 heures et 4 minutes, à 20:00 UTC
Prévision valable du 17 à 21 UTC au 18 à 03 UTC
Vent 8 kt de nord-ouest
Visibilité 10 km ou plus
Nuages épars à une hauteur de 4000 ft
Evoluant progressivement
du 17 à 21 UTC au 17 à 23 UTC
Vent 3 kt de nord-ouest

TAF: EDVK 172000Z 1721/1803 32008KT 9999 SCT040 BECMG 1721/1723 32003KT

Observations et prévisions météorologiques de plus de 4000 aéroports (messages METAR et TAF).

Les stations disponibles sont représentées par des disques jaunes et rouges sur la carte.

Passer la souris dessus pour voir le nom de la station.

Cliquer dessus pour voir les observations et prévisions météorologiques.

Pour changer de carte: cliquez sur les boutons verts avec une croix noire pour zoomer, sur le bouton vert avec un tiret pour effectuer un zoom arrière, ou sur les flèches vertes pour les cartes adjacentes.


METAR-TAF: